sensor_id;sensor_type;location;lat;lon;timestamp;pressure;altitude;pressure_sealevel;temperature;humidity
19208;BME280;9737;59.466;18.036;2022-08-11T00:00:13;101050.47;;;18.33;48.65
19208;BME280;9737;59.466;18.036;2022-08-11T00:02:46;100996.94;;;18.20;48.60
19208;BME280;9737;59.466;18.036;2022-08-11T00:05:19;100957.81;;;17.99;48.76
19208;BME280;9737;59.466;18.036;2022-08-11T00:07:49;100973.59;;;18.11;48.81
19208;BME280;9737;59.466;18.036;2022-08-11T00:10:23;100885.38;;;17.78;48.93
19208;BME280;9737;59.466;18.036;2022-08-11T00:12:54;100904.72;;;17.91;48.86
19208;BME280;9737;59.466;18.036;2022-08-11T00:15:37;100907.91;;;18.04;49.01
19208;BME280;9737;59.466;18.036;2022-08-11T00:18:08;100895.53;;;17.93;49.12
19208;BME280;9737;59.466;18.036;2022-08-11T00:20:41;100904.53;;;18.02;49.12
19208;BME280;9737;59.466;18.036;2022-08-11T00:23:15;100872.09;;;17.76;49.21
19208;BME280;9737;59.466;18.036;2022-08-11T00:25:47;100883.47;;;17.88;49.38
19208;BME280;9737;59.466;18.036;2022-08-11T00:28:25;100893.56;;;17.86;49.32
19208;BME280;9737;59.466;18.036;2022-08-11T00:30:58;100913.31;;;18.04;49.47
19208;BME280;9737;59.466;18.036;2022-08-11T00:33:33;100893.84;;;17.83;49.59
19208;BME280;9737;59.466;18.036;2022-08-11T00:36:14;100896.06;;;17.97;49.46
19208;BME280;9737;59.466;18.036;2022-08-11T00:38:51;100906.53;;;18.00;49.81
19208;BME280;9737;59.466;18.036;2022-08-11T00:41:28;100906.53;;;18.00;49.79
19208;BME280;9737;59.466;18.036;2022-08-11T00:44:10;100896.94;;;17.88;49.89
19208;BME280;9737;59.466;18.036;2022-08-11T00:46:56;100938.22;;;18.06;50.06
19208;BME280;9737;59.466;18.036;2022-08-11T00:49:41;100926.34;;;17.99;50.03
19208;BME280;9737;59.466;18.036;2022-08-11T00:52:24;100928.34;;;17.97;50.02
19208;BME280;9737;59.466;18.036;2022-08-11T01:01:28;100886.38;;;17.77;50.31
19208;BME280;9737;59.466;18.036;2022-08-11T01:04:37;100835.00;;;17.60;50.45
19208;BME280;9737;59.466;18.036;2022-08-11T01:07:46;100882.09;;;17.84;50.83
19208;BME280;9737;59.466;18.036;2022-08-11T01:10:43;100874.88;;;17.84;50.67
19208;BME280;9737;59.466;18.036;2022-08-11T01:13:17;100827.16;;;17.49;50.79
19208;BME280;9737;59.466;18.036;2022-08-11T01:16:01;100887.03;;;17.88;50.85
19208;BME280;9737;59.466;18.036;2022-08-11T01:19:11;100894.09;;;17.89;51.04
19208;BME280;9737;59.466;18.036;2022-08-11T01:22:23;100878.06;;;17.70;51.13
19208;BME280;9737;59.466;18.036;2022-08-11T01:32:00;100881.41;;;17.82;51.54
19208;BME280;9737;59.466;18.036;2022-08-11T01:35:11;100867.53;;;17.77;51.54
19208;BME280;9737;59.466;18.036;2022-08-11T01:44:44;100788.00;;;17.37;51.81
19208;BME280;9737;59.466;18.036;2022-08-11T01:47:26;100815.75;;;17.65;51.99
19208;BME280;9737;59.466;18.036;2022-08-11T01:50:37;100754.78;;;17.28;51.75
19208;BME280;9737;59.466;18.036;2022-08-11T01:53:14;100738.88;;;17.45;52.07
19208;BME280;9737;59.466;18.036;2022-08-11T01:55:51;100650.66;;;17.03;52.15
19208;BME280;9737;59.466;18.036;2022-08-11T01:58:30;100709.34;;;17.35;52.24
19208;BME280;9737;59.466;18.036;2022-08-11T02:01:35;100666.22;;;17.27;52.28
19208;BME280;9737;59.466;18.036;2022-08-11T02:04:16;100672.59;;;17.26;52.39
19208;BME280;9737;59.466;18.036;2022-08-11T02:06:52;100709.06;;;17.28;52.44
19208;BME280;9737;59.466;18.036;2022-08-11T02:09:42;100722.50;;;17.38;52.53
19208;BME280;9737;59.466;18.036;2022-08-11T02:12:27;100694.69;;;17.20;52.60
19208;BME280;9737;59.466;18.036;2022-08-11T02:15:10;100693.41;;;17.24;52.69
19208;BME280;9737;59.466;18.036;2022-08-11T02:17:49;100747.09;;;17.43;52.86
19208;BME280;9737;59.466;18.036;2022-08-11T02:20:23;100706.84;;;17.24;52.86
19208;BME280;9737;59.466;18.036;2022-08-11T02:23:20;100668.22;;;16.97;52.91
19208;BME280;9737;59.466;18.036;2022-08-11T02:26:33;100672.00;;;17.04;52.94
19208;BME280;9737;59.466;18.036;2022-08-11T02:29:10;100717.59;;;17.24;53.33
19208;BME280;9737;59.466;18.036;2022-08-11T02:31:46;100720.59;;;17.21;53.30
19208;BME280;9737;59.466;18.036;2022-08-11T02:35:01;100703.00;;;17.26;53.45
19208;BME280;9737;59.466;18.036;2022-08-11T02:37:40;100667.13;;;17.18;53.39
19208;BME280;9737;59.466;18.036;2022-08-11T02:40:21;100655.47;;;16.99;53.39
19208;BME280;9737;59.466;18.036;2022-08-11T02:43:01;100723.75;;;17.34;53.60
19208;BME280;9737;59.466;18.036;2022-08-11T02:45:41;100709.53;;;17.24;53.58
19208;BME280;9737;59.466;18.036;2022-08-11T02:48:26;100728.75;;;17.29;53.47
19208;BME280;9737;59.466;18.036;2022-08-11T02:51:19;100699.69;;;17.15;53.79
19208;BME280;9737;59.466;18.036;2022-08-11T02:53:58;100704.22;;;17.04;53.84
19208;BME280;9737;59.466;18.036;2022-08-11T02:56:38;100746.06;;;17.17;53.95
19208;BME280;9737;59.466;18.036;2022-08-11T02:59:27;100745.16;;;17.26;54.12
19208;BME280;9737;59.466;18.036;2022-08-11T03:02:46;100778.81;;;17.40;54.27
19208;BME280;9737;59.466;18.036;2022-08-11T03:05:29;100785.72;;;17.42;54.29
19208;BME280;9737;59.466;18.036;2022-08-11T03:08:15;100781.34;;;17.41;54.40
19208;BME280;9737;59.466;18.036;2022-08-11T03:10:53;100761.28;;;17.26;54.48
19208;BME280;9737;59.466;18.036;2022-08-11T03:13:47;100801.16;;;17.40;54.57
19208;BME280;9737;59.466;18.036;2022-08-11T03:16:43;100746.97;;;17.08;54.58
19208;BME280;9737;59.466;18.036;2022-08-11T03:19:21;100746.22;;;17.06;54.78
19208;BME280;9737;59.466;18.036;2022-08-11T03:22:01;100788.56;;;17.41;54.89
19208;BME280;9737;59.466;18.036;2022-08-11T03:24:42;100784.31;;;17.38;54.93
19208;BME280;9737;59.466;18.036;2022-08-11T03:27:28;100756.56;;;17.10;54.88
19208;BME280;9737;59.466;18.036;2022-08-11T03:30:11;100774.09;;;17.14;55.11
19208;BME280;9737;59.466;18.036;2022-08-11T03:33:17;100834.66;;;17.46;55.15
19208;BME280;9737;59.466;18.036;2022-08-11T03:36:11;100843.28;;;17.49;55.25
19208;BME280;9737;59.466;18.036;2022-08-11T03:38:56;100847.25;;;17.45;55.36
19208;BME280;9737;59.466;18.036;2022-08-11T03:41:31;100832.28;;;17.43;55.48
19208;BME280;9737;59.466;18.036;2022-08-11T03:44:51;100811.50;;;17.35;55.58
19208;BME280;9737;59.466;18.036;2022-08-11T03:47:35;100845.28;;;17.47;55.66
19208;BME280;9737;59.466;18.036;2022-08-11T03:50:29;100782.44;;;17.11;55.57
19208;BME280;9737;59.466;18.036;2022-08-11T03:53:11;100795.72;;;17.13;55.63
19208;BME280;9737;59.466;18.036;2022-08-11T03:56:05;100878.63;;;17.54;55.81
19208;BME280;9737;59.466;18.036;2022-08-11T03:59:04;100903.25;;;17.59;55.85
19208;BME280;9737;59.466;18.036;2022-08-11T04:05:13;100863.25;;;17.47;56.02
19208;BME280;9737;59.466;18.036;2022-08-11T04:08:19;100900.84;;;17.56;56.26
19208;BME280;9737;59.466;18.036;2022-08-11T04:11:27;100936.91;;;17.63;56.35
19208;BME280;9737;59.466;18.036;2022-08-11T04:14:41;100958.75;;;17.70;56.35
19208;BME280;9737;59.466;18.036;2022-08-11T04:18:01;100991.28;;;17.77;56.60
19208;BME280;9737;59.466;18.036;2022-08-11T04:21:03;100975.75;;;17.71;56.62
19208;BME280;9737;59.466;18.036;2022-08-11T04:24:06;100992.19;;;17.68;56.76
19208;BME280;9737;59.466;18.036;2022-08-11T04:27:31;101000.22;;;17.77;56.67
19208;BME280;9737;59.466;18.036;2022-08-11T04:30:09;101014.50;;;17.78;56.80
19208;BME280;9737;59.466;18.036;2022-08-11T04:33:09;100966.97;;;17.49;57.05
19208;BME280;9737;59.466;18.036;2022-08-11T04:35:51;101031.06;;;17.83;56.97
19208;BME280;9737;59.466;18.036;2022-08-11T04:38:44;101060.06;;;17.89;57.12
19208;BME280;9737;59.466;18.036;2022-08-11T04:41:32;101061.22;;;17.86;57.14
19208;BME280;9737;59.466;18.036;2022-08-11T04:44:57;101104.84;;;18.00;57.52
19208;BME280;9737;59.466;18.036;2022-08-11T04:47:47;101145.19;;;18.09;57.46
19208;BME280;9737;59.466;18.036;2022-08-11T04:51:00;101180.28;;;18.17;57.41
19208;BME280;9737;59.466;18.036;2022-08-11T04:53:59;101234.28;;;18.25;57.91
19208;BME280;9737;59.466;18.036;2022-08-11T04:56:58;101264.63;;;18.27;57.71
19208;BME280;9737;59.466;18.036;2022-08-11T05:00:03;101311.38;;;18.46;57.78
19208;BME280;9737;59.466;18.036;2022-08-11T05:03:07;101385.13;;;18.64;57.87
19208;BME280;9737;59.466;18.036;2022-08-11T05:06:03;101395.06;;;18.64;57.88
19208;BME280;9737;59.466;18.036;2022-08-11T05:09:07;101387.13;;;18.62;58.09
19208;BME280;9737;59.466;18.036;2022-08-11T05:12:05;101431.06;;;18.72;57.92
19208;BME280;9737;59.466;18.036;2022-08-11T05:14:40;101431.06;;;18.53;58.20
19208;BME280;9737;59.466;18.036;2022-08-11T05:17:36;101499.16;;;18.74;58.48
19208;BME280;9737;59.466;18.036;2022-08-11T05:20:24;101607.03;;;19.13;58.32
19208;BME280;9737;59.466;18.036;2022-08-11T05:23:11;101631.59;;;19.10;58.53
19208;BME280;9737;59.466;18.036;2022-08-11T05:26:03;101697.06;;;19.31;58.60
19208;BME280;9737;59.466;18.036;2022-08-11T05:29:26;101757.00;;;19.44;58.55
19208;BME280;9737;59.466;18.036;2022-08-11T05:32:21;101811.59;;;19.58;58.68
19208;BME280;9737;59.466;18.036;2022-08-11T05:35:16;101706.09;;;19.11;58.88
19208;BME280;9737;59.466;18.036;2022-08-11T05:38:23;101784.63;;;19.27;58.82
19208;BME280;9737;59.466;18.036;2022-08-11T05:41:12;101877.00;;;19.71;59.06
19208;BME280;9737;59.466;18.036;2022-08-11T05:44:02;101861.25;;;19.45;58.96
19208;BME280;9737;59.466;18.036;2022-08-11T05:46:53;101914.16;;;19.58;59.15
19208;BME280;9737;59.466;18.036;2022-08-11T05:49:40;101989.56;;;19.90;59.24
19208;BME280;9737;59.466;18.036;2022-08-11T05:52:28;102071.03;;;19.95;59.17
19208;BME280;9737;59.466;18.036;2022-08-11T05:55:23;102229.31;;;20.49;59.41
19208;BME280;9737;59.466;18.036;2022-08-11T05:58:34;102294.28;;;20.58;59.48
19208;BME280;9737;59.466;18.036;2022-08-11T06:01:09;102278.66;;;20.41;59.45
19208;BME280;9737;59.466;18.036;2022-08-11T06:03:47;102322.06;;;20.49;59.51
19208;BME280;9737;59.466;18.036;2022-08-11T06:06:35;102444.22;;;20.96;59.66
19208;BME280;9737;59.466;18.036;2022-08-11T06:09:12;102522.09;;;21.13;59.72
19208;BME280;9737;59.466;18.036;2022-08-11T06:11:42;102400.75;;;20.67;59.88
19208;BME280;9737;59.466;18.036;2022-08-11T06:14:13;102440.66;;;20.75;60.06
19208;BME280;9737;59.466;18.036;2022-08-11T06:16:48;102501.94;;;21.06;59.80
19208;BME280;9737;59.466;18.036;2022-08-11T06:19:21;102473.53;;;20.91;59.98
19208;BME280;9737;59.466;18.036;2022-08-11T06:21:58;102570.88;;;21.23;59.82
19208;BME280;9737;59.466;18.036;2022-08-11T06:24:37;102591.19;;;21.17;59.81
19208;BME280;9737;59.466;18.036;2022-08-11T06:27:07;102649.47;;;21.21;59.96
19208;BME280;9737;59.466;18.036;2022-08-11T06:29:46;102624.66;;;21.16;59.96
19208;BME280;9737;59.466;18.036;2022-08-11T06:32:28;102588.53;;;21.06;60.16
19208;BME280;9737;59.466;18.036;2022-08-11T06:35:09;102613.06;;;21.25;59.99
19208;BME280;9737;59.466;18.036;2022-08-11T06:37:45;102564.88;;;21.19;60.22
19208;BME280;9737;59.466;18.036;2022-08-11T06:40:28;102435.03;;;20.66;60.14
19208;BME280;9737;59.466;18.036;2022-08-11T06:43:02;102458.09;;;20.82;60.27
19208;BME280;9737;59.466;18.036;2022-08-11T06:45:40;102406.81;;;20.59;60.11
19208;BME280;9737;59.466;18.036;2022-08-11T06:48:18;102469.84;;;20.81;60.23
19208;BME280;9737;59.466;18.036;2022-08-11T06:50:49;102551.13;;;21.11;60.35
19208;BME280;9737;59.466;18.036;2022-08-11T06:53:44;102635.78;;;21.34;60.25
19208;BME280;9737;59.466;18.036;2022-08-11T06:56:34;102639.34;;;21.34;60.22
19208;BME280;9737;59.466;18.036;2022-08-11T06:59:40;102644.94;;;21.22;60.28
19208;BME280;9737;59.466;18.036;2022-08-11T07:02:30;102660.31;;;21.21;60.31
19208;BME280;9737;59.466;18.036;2022-08-11T07:05:06;102746.63;;;21.47;60.40
19208;BME280;9737;59.466;18.036;2022-08-11T07:08:06;102756.84;;;21.43;60.29
19208;BME280;9737;59.466;18.036;2022-08-11T07:11:14;102825.69;;;21.61;60.55
19208;BME280;9737;59.466;18.036;2022-08-11T07:14:04;102889.78;;;21.83;60.51
19208;BME280;9737;59.466;18.036;2022-08-11T07:16:52;102854.88;;;21.69;60.38
19208;BME280;9737;59.466;18.036;2022-08-11T07:19:27;102877.84;;;21.86;60.38
19208;BME280;9737;59.466;18.036;2022-08-11T07:22:15;102925.13;;;21.82;60.38
19208;BME280;9737;59.466;18.036;2022-08-11T07:25:02;102896.97;;;21.73;60.67
19208;BME280;9737;59.466;18.036;2022-08-11T07:27:58;102925.47;;;21.88;60.40
19208;BME280;9737;59.466;18.036;2022-08-11T07:30:45;102978.94;;;21.98;60.65
19208;BME280;9737;59.466;18.036;2022-08-11T07:33:30;103013.69;;;22.04;60.69
19208;BME280;9737;59.466;18.036;2022-08-11T07:36:22;103109.47;;;22.25;60.47
19208;BME280;9737;59.466;18.036;2022-08-11T07:38:55;103292.41;;;22.77;60.59
19208;BME280;9737;59.466;18.036;2022-08-11T07:41:25;103305.22;;;22.64;60.67
19208;BME280;9737;59.466;18.036;2022-08-11T07:43:58;103367.56;;;22.88;60.75
19208;BME280;9737;59.466;18.036;2022-08-11T07:46:37;103384.47;;;22.91;60.68
19208;BME280;9737;59.466;18.036;2022-08-11T07:49:26;103439.97;;;23.09;60.52
19208;BME280;9737;59.466;18.036;2022-08-11T07:52:14;103487.25;;;23.18;60.86
19208;BME280;9737;59.466;18.036;2022-08-11T07:54:57;103584.16;;;23.40;60.47
19208;BME280;9737;59.466;18.036;2022-08-11T07:57:30;103635.28;;;23.35;60.87
19208;BME280;9737;59.466;18.036;2022-08-11T08:00:41;103748.69;;;23.79;60.90
19208;BME280;9737;59.466;18.036;2022-08-11T08:03:28;103703.78;;;23.62;60.81
19208;BME280;9737;59.466;18.036;2022-08-11T08:06:20;103743.59;;;23.74;60.95
19208;BME280;9737;59.466;18.036;2022-08-11T08:09:09;103668.72;;;23.59;60.58
19208;BME280;9737;59.466;18.036;2022-08-11T08:11:56;103638.91;;;23.46;60.72
19208;BME280;9737;59.466;18.036;2022-08-11T08:14:44;103757.94;;;23.76;60.75
19208;BME280;9737;59.466;18.036;2022-08-11T08:17:31;103843.47;;;23.95;60.81
19208;BME280;9737;59.466;18.036;2022-08-11T08:20:39;103900.41;;;24.09;60.52
19208;BME280;9737;59.466;18.036;2022-08-11T08:23:09;103974.84;;;24.19;60.74
19208;BME280;9737;59.466;18.036;2022-08-11T08:25:41;103991.88;;;24.10;60.40
19208;BME280;9737;59.466;18.036;2022-08-11T08:28:13;103958.38;;;24.09;60.78
19208;BME280;9737;59.466;18.036;2022-08-11T08:30:43;103945.41;;;24.13;60.40
19208;BME280;9737;59.466;18.036;2022-08-11T08:33:17;104011.78;;;24.34;60.70
19208;BME280;9737;59.466;18.036;2022-08-11T08:35:49;104118.00;;;24.57;60.57
19208;BME280;9737;59.466;18.036;2022-08-11T08:39:42;104240.78;;;24.65;60.43
19208;BME280;9737;59.466;18.036;2022-08-11T08:42:29;104389.47;;;25.04;60.63
19208;BME280;9737;59.466;18.036;2022-08-11T08:45:05;104473.50;;;25.34;60.68
19208;BME280;9737;59.466;18.036;2022-08-11T08:47:35;104560.16;;;25.54;60.48
19208;BME280;9737;59.466;18.036;2022-08-11T08:50:10;104606.59;;;25.53;60.53
19208;BME280;9737;59.466;18.036;2022-08-11T08:52:53;104625.78;;;25.51;60.47
19208;BME280;9737;59.466;18.036;2022-08-11T08:55:27;104714.13;;;25.87;60.40
19208;BME280;9737;59.466;18.036;2022-08-11T08:58:00;104925.59;;;26.31;60.11
19208;BME280;9737;59.466;18.036;2022-08-11T09:00:38;105155.28;;;26.78;60.34
19208;BME280;9737;59.466;18.036;2022-08-11T09:03:07;105174.06;;;26.70;60.26
19208;BME280;9737;59.466;18.036;2022-08-11T09:05:56;105376.91;;;27.28;60.04
19208;BME280;9737;59.466;18.036;2022-08-11T09:08:25;105509.22;;;27.52;60.57
19208;BME280;9737;59.466;18.036;2022-08-11T09:10:56;105703.56;;;27.92;60.32
19208;BME280;9737;59.466;18.036;2022-08-11T09:13:45;105840.13;;;28.25;59.92
19208;BME280;9737;59.466;18.036;2022-08-11T09:16:33;105810.13;;;28.09;60.12
19208;BME280;9737;59.466;18.036;2022-08-11T09:19:02;105741.00;;;28.05;59.98
19208;BME280;9737;59.466;18.036;2022-08-11T09:21:31;105856.72;;;28.22;59.90
19208;BME280;9737;59.466;18.036;2022-08-11T09:24:16;105900.75;;;28.19;59.95
19208;BME280;9737;59.466;18.036;2022-08-11T09:27:05;106151.19;;;28.87;59.90
19208;BME280;9737;59.466;18.036;2022-08-11T09:29:37;106500.28;;;29.64;59.73
19208;BME280;9737;59.466;18.036;2022-08-11T09:32:06;106901.75;;;30.47;59.90
19208;BME280;9737;59.466;18.036;2022-08-11T09:34:36;107072.84;;;30.68;59.50
19208;BME280;9737;59.466;18.036;2022-08-11T09:37:07;107424.97;;;31.34;59.66
19208;BME280;9737;59.466;18.036;2022-08-11T09:40:14;108059.19;;;32.65;58.98
19208;BME280;9737;59.466;18.036;2022-08-11T09:43:02;108390.88;;;33.31;58.97
19208;BME280;9737;59.466;18.036;2022-08-11T09:45:54;108709.66;;;34.05;59.00
19208;BME280;9737;59.466;18.036;2022-08-11T09:48:28;108790.88;;;34.23;59.21
19208;BME280;9737;59.466;18.036;2022-08-11T09:50:59;108842.03;;;34.33;58.65
19208;BME280;9737;59.466;18.036;2022-08-11T09:53:37;108865.97;;;34.34;58.70
19208;BME280;9737;59.466;18.036;2022-08-11T09:56:29;109230.94;;;35.06;58.30
19208;BME280;9737;59.466;18.036;2022-08-11T09:59:31;109719.50;;;35.98;58.09
19208;BME280;9737;59.466;18.036;2022-08-11T10:02:04;109753.66;;;36.00;57.89
19208;BME280;9737;59.466;18.036;2022-08-11T10:04:38;109535.97;;;35.65;57.81
19208;BME280;9737;59.466;18.036;2022-08-11T10:07:07;109485.81;;;35.50;57.86
19208;BME280;9737;59.466;18.036;2022-08-11T10:09:40;109671.91;;;35.87;57.36
19208;BME280;9737;59.466;18.036;2022-08-11T10:12:11;109623.84;;;35.87;57.36
19208;BME280;9737;59.466;18.036;2022-08-11T10:14:44;110203.84;;;37.08;56.74
19208;BME280;9737;59.466;18.036;2022-08-11T10:17:35;110102.00;;;36.84;57.04
19208;BME280;9737;59.466;18.036;2022-08-11T10:20:25;110103.88;;;36.83;56.57
19208;BME280;9737;59.466;18.036;2022-08-11T10:26:23;110408.69;;;37.56;55.66
19208;BME280;9737;59.466;18.036;2022-08-11T10:29:11;110475.69;;;37.75;55.58
19208;BME280;9737;59.466;18.036;2022-08-11T10:32:19;110459.13;;;37.72;55.12
19208;BME280;9737;59.466;18.036;2022-08-11T10:35:28;110062.09;;;37.08;54.93
19208;BME280;9737;59.466;18.036;2022-08-11T10:37:59;110038.19;;;37.04;54.47
19208;BME280;9737;59.466;18.036;2022-08-11T10:40:38;110187.91;;;37.37;54.11
19208;BME280;9737;59.466;18.036;2022-08-11T10:43:07;110432.75;;;37.82;54.09
19208;BME280;9737;59.466;18.036;2022-08-11T10:49:37;110829.44;;;38.71;53.24
19208;BME280;9737;59.466;18.036;2022-08-11T10:52:49;111168.50;;;39.28;52.84
19208;BME280;9737;59.466;18.036;2022-08-11T10:55:37;110556.72;;;38.14;52.63
19208;BME280;9737;59.466;18.036;2022-08-11T10:58:24;110610.41;;;38.42;52.43
19208;BME280;9737;59.466;18.036;2022-08-11T11:01:12;110479.28;;;38.25;52.11
19208;BME280;9737;59.466;18.036;2022-08-11T11:03:42;110551.91;;;38.42;51.71
19208;BME280;9737;59.466;18.036;2022-08-11T11:09:57;109802.63;;;36.89;51.60
19208;BME280;9737;59.466;18.036;2022-08-11T11:13:09;110028.31;;;37.61;50.80
19208;BME280;9737;59.466;18.036;2022-08-11T11:15:54;109964.88;;;37.49;50.42
19208;BME280;9737;59.466;18.036;2022-08-11T11:18:53;109743.38;;;37.09;50.14
19208;BME280;9737;59.466;18.036;2022-08-11T11:21:27;109909.56;;;37.43;50.09
19208;BME280;9737;59.466;18.036;2022-08-11T11:24:06;110449.19;;;38.57;49.80
19208;BME280;9737;59.466;18.036;2022-08-11T11:26:44;110665.69;;;39.00;49.37
19208;BME280;9737;59.466;18.036;2022-08-11T11:29:42;110697.91;;;39.09;49.07
19208;BME280;9737;59.466;18.036;2022-08-11T11:32:23;110485.09;;;38.64;49.20
19208;BME280;9737;59.466;18.036;2022-08-11T11:35:06;110724.38;;;39.20;48.56
19208;BME280;9737;59.466;18.036;2022-08-11T11:37:39;110826.00;;;39.37;48.06
19208;BME280;9737;59.466;18.036;2022-08-11T11:40:28;111252.47;;;40.25;47.98
19208;BME280;9737;59.466;18.036;2022-08-11T11:42:59;111025.34;;;39.76;47.75
19208;BME280;9737;59.466;18.036;2022-08-11T11:45:31;110825.09;;;39.58;47.48
19208;BME280;9737;59.466;18.036;2022-08-11T11:48:00;110452.69;;;38.84;46.96
19208;BME280;9737;59.466;18.036;2022-08-11T11:50:30;110386.59;;;38.65;47.15
19208;BME280;9737;59.466;18.036;2022-08-11T11:53:03;110126.25;;;38.32;46.82
19208;BME280;9737;59.466;18.036;2022-08-11T11:55:33;109576.50;;;37.31;46.93
19208;BME280;9737;59.466;18.036;2022-08-11T11:58:04;109453.53;;;37.07;46.58
19208;BME280;9737;59.466;18.036;2022-08-11T12:00:54;109078.56;;;36.36;46.26
19208;BME280;9737;59.466;18.036;2022-08-11T12:03:42;108335.38;;;34.90;46.12
19208;BME280;9737;59.466;18.036;2022-08-11T12:06:13;108099.81;;;34.31;45.81
19208;BME280;9737;59.466;18.036;2022-08-11T12:08:42;107836.16;;;33.86;45.69
19208;BME280;9737;59.466;18.036;2022-08-11T12:11:11;107647.03;;;33.61;45.60
19208;BME280;9737;59.466;18.036;2022-08-11T12:14:01;107411.63;;;32.99;45.13
19208;BME280;9737;59.466;18.036;2022-08-11T12:16:38;107250.97;;;32.79;45.03
19208;BME280;9737;59.466;18.036;2022-08-11T12:19:10;107128.50;;;32.53;44.82
19208;BME280;9737;59.466;18.036;2022-08-11T12:21:39;107003.75;;;32.35;44.38
19208;BME280;9737;59.466;18.036;2022-08-11T12:24:31;106802.88;;;31.90;44.19
19208;BME280;9737;59.466;18.036;2022-08-11T12:27:37;106651.16;;;31.66;44.20
19208;BME280;9737;59.466;18.036;2022-08-11T12:30:09;106491.31;;;31.15;44.33
19208;BME280;9737;59.466;18.036;2022-08-11T12:32:38;106521.56;;;31.42;44.01
19208;BME280;9737;59.466;18.036;2022-08-11T12:35:09;106443.22;;;31.08;43.57
19208;BME280;9737;59.466;18.036;2022-08-11T12:37:44;106432.09;;;31.09;43.82
19208;BME280;9737;59.466;18.036;2022-08-11T12:40:18;106476.44;;;31.32;43.27
19208;BME280;9737;59.466;18.036;2022-08-11T12:43:28;106399.53;;;31.03;43.47
19208;BME280;9737;59.466;18.036;2022-08-11T12:46:28;106349.34;;;31.00;43.62
19208;BME280;9737;59.466;18.036;2022-08-11T12:49:03;106367.84;;;31.10;43.14
19208;BME280;9737;59.466;18.036;2022-08-11T12:51:53;106258.91;;;30.95;43.13
19208;BME280;9737;59.466;18.036;2022-08-11T12:54:47;106131.66;;;30.68;43.00
19208;BME280;9737;59.466;18.036;2022-08-11T12:57:23;106092.47;;;30.51;42.57
19208;BME280;9737;59.466;18.036;2022-08-11T13:00:10;106099.66;;;30.67;42.56
19208;BME280;9737;59.466;18.036;2022-08-11T13:02:58;105956.97;;;30.26;42.63
19208;BME280;9737;59.466;18.036;2022-08-11T13:05:46;105984.44;;;30.38;42.67
19208;BME280;9737;59.466;18.036;2022-08-11T13:08:20;105945.22;;;30.36;42.30
19208;BME280;9737;59.466;18.036;2022-08-11T13:10:49;106080.41;;;30.67;42.32
19208;BME280;9737;59.466;18.036;2022-08-11T13:13:37;106376.22;;;31.22;42.41
19208;BME280;9737;59.466;18.036;2022-08-11T13:16:26;106353.25;;;31.23;42.32
19208;BME280;9737;59.466;18.036;2022-08-11T13:18:57;106250.09;;;31.03;42.14
19208;BME280;9737;59.466;18.036;2022-08-11T13:21:28;106191.16;;;30.94;41.94
19208;BME280;9737;59.466;18.036;2022-08-11T13:23:59;106127.47;;;30.75;42.03
19208;BME280;9737;59.466;18.036;2022-08-11T13:26:33;106232.50;;;31.05;41.79
19208;BME280;9737;59.466;18.036;2022-08-11T13:29:23;106150.44;;;30.87;41.96
19208;BME280;9737;59.466;18.036;2022-08-11T13:31:53;106139.22;;;30.77;41.81
19208;BME280;9737;59.466;18.036;2022-08-11T13:34:28;106188.16;;;30.97;41.73
19208;BME280;9737;59.466;18.036;2022-08-11T13:37:01;106309.88;;;31.26;41.81
19208;BME280;9737;59.466;18.036;2022-08-11T13:39:32;106410.59;;;31.29;41.72
19208;BME280;9737;59.466;18.036;2022-08-11T13:42:04;106834.19;;;32.43;41.37
19208;BME280;9737;59.466;18.036;2022-08-11T13:44:35;107187.03;;;33.14;41.46
19208;BME280;9737;59.466;18.036;2022-08-11T13:47:06;107440.44;;;33.66;41.48
19208;BME280;9737;59.466;18.036;2022-08-11T13:49:39;107470.03;;;33.64;41.24
19208;BME280;9737;59.466;18.036;2022-08-11T13:52:10;107471.56;;;33.82;41.52
19208;BME280;9737;59.466;18.036;2022-08-11T13:54:42;107567.81;;;34.04;41.25
19208;BME280;9737;59.466;18.036;2022-08-11T13:57:14;107643.56;;;34.15;41.23
19208;BME280;9737;59.466;18.036;2022-08-11T14:00:09;107850.66;;;34.64;40.81
19208;BME280;9737;59.466;18.036;2022-08-11T14:02:51;107916.50;;;34.73;41.07
19208;BME280;9737;59.466;18.036;2022-08-11T14:05:26;108112.78;;;35.22;40.90
19208;BME280;9737;59.466;18.036;2022-08-11T14:08:00;108480.44;;;35.83;41.03
19208;BME280;9737;59.466;18.036;2022-08-11T14:10:33;108802.78;;;36.69;40.39
19208;BME280;9737;59.466;18.036;2022-08-11T14:13:07;108918.78;;;36.81;40.61
19208;BME280;9737;59.466;18.036;2022-08-11T14:15:54;108434.44;;;35.79;40.62
19208;BME280;9737;59.466;18.036;2022-08-11T14:18:29;108254.16;;;35.51;40.46
19208;BME280;9737;59.466;18.036;2022-08-11T14:21:02;108438.03;;;35.97;40.36
19208;BME280;9737;59.466;18.036;2022-08-11T14:23:53;108622.13;;;36.26;40.30
19208;BME280;9737;59.466;18.036;2022-08-11T14:26:35;108335.91;;;35.74;40.16
19208;BME280;9737;59.466;18.036;2022-08-11T14:29:08;108022.91;;;34.98;40.06
19208;BME280;9737;59.466;18.036;2022-08-11T14:31:44;108390.88;;;35.81;39.91
19208;BME280;9737;59.466;18.036;2022-08-11T14:34:13;108924.13;;;37.00;39.54
19208;BME280;9737;59.466;18.036;2022-08-11T14:36:49;109326.75;;;37.73;39.89
19208;BME280;9737;59.466;18.036;2022-08-11T14:39:23;109317.78;;;37.84;39.56
19208;BME280;9737;59.466;18.036;2022-08-11T14:41:54;109806.84;;;38.87;39.48
19208;BME280;9737;59.466;18.036;2022-08-11T14:44:42;109775.38;;;38.85;39.52
19208;BME280;9737;59.466;18.036;2022-08-11T14:47:51;109512.59;;;38.34;39.52
19208;BME280;9737;59.466;18.036;2022-08-11T14:50:22;109523.72;;;38.34;39.06
19208;BME280;9737;59.466;18.036;2022-08-11T14:52:54;109639.34;;;38.59;39.21